Time;durP1;ratioP1;P1;durP2;ratioP2;P2;SDS_P1;SDS_P2;PMS_P1;PMS_P2;Temp;Humidity;BMP_temperature;BMP_pressure;BME280_temperature;BME280_humidity;BME280_pressure;Samples;Min_cycle;Max_cycle;Signal;HPM_P1;HPM_P2
2023/05/02 00:00:02;;;;;;;8.38;4.07;;;;;;;19.89;28.63;100955.81;5042486;27;97249;-76
2023/05/02 00:02:29;;;;;;;9.43;4.28;;;;;;;19.74;29.07;100954.22;5042946;27;96940;-76
2023/05/02 00:04:56;;;;;;;8.73;4.65;;;;;;;19.77;28.62;100949.50;5039623;27;99665;-73
2023/05/02 00:07:22;;;;;;;8.02;4.03;;;;;;;19.80;28.56;100954.66;5044498;27;98121;-77
2023/05/02 00:09:50;;;;;;;7.43;3.92;;;;;;;19.60;29.28;100954.34;5042534;27;96842;-76
2023/05/02 00:12:17;;;;;;;6.93;4.07;;;;;;;19.79;28.45;100949.41;5045916;27;96847;-76
2023/05/02 00:14:43;;;;;;;17.33;4.38;;;;;;;19.74;28.98;100952.41;5043940;27;99127;-76
2023/05/02 00:17:17;;;;;;;7.28;4.05;;;;;;;19.65;29.13;100949.50;5042095;27;99182;-77
2023/05/02 00:19:43;;;;;;;7.75;4.40;;;;;;;19.71;29.11;100949.06;5037969;27;97000;-76
2023/05/02 00:22:10;;;;;;;6.80;4.00;;;;;;;19.73;29.09;100942.66;5041741;27;96860;-77
2023/05/02 00:24:36;;;;;;;8.15;4.57;;;;;;;19.54;29.40;100947.59;5037166;27;98968;-77
2023/05/02 00:27:05;;;;;;;8.85;4.07;;;;;;;19.33;29.86;100949.88;5040283;27;99319;-77
2023/05/02 00:29:31;;;;;;;9.10;4.80;;;;;;;19.16;29.55;100952.88;5043487;27;97080;-76
2023/05/02 00:31:58;;;;;;;12.15;4.25;;;;;;;19.31;29.51;100950.94;5046769;27;96889;-73
2023/05/02 00:34:24;;;;;;;7.70;4.28;;;;;;;19.27;29.53;100944.94;5046416;27;99385;-73
2023/05/02 00:36:50;;;;;;;8.27;4.45;;;;;;;19.40;29.33;100945.81;5044975;27;98837;-74
2023/05/02 00:39:17;;;;;;;11.95;4.50;;;;;;;19.29;29.47;100948.38;5041132;27;97420;-73
2023/05/02 00:41:43;;;;;;;13.18;4.20;;;;;;;19.25;29.80;100943.31;5044158;27;96876;-72
2023/05/02 00:44:11;;;;;;;12.45;4.38;;;;;;;19.25;30.11;100946.00;5038467;27;97857;-74
2023/05/02 00:46:37;;;;;;;6.82;4.13;;;;;;;19.14;30.01;100946.75;5041775;27;98787;-74
2023/05/02 00:49:04;;;;;;;8.98;4.20;;;;;;;19.29;29.91;100943.03;5040270;27;97471;-73
2023/05/02 00:51:32;;;;;;;11.80;4.22;;;;;;;18.99;30.39;100945.94;5039873;27;96971;-73
2023/05/02 00:54:00;;;;;;;6.45;3.45;;;;;;;19.21;30.31;100948.03;5047563;27;98310;-73
2023/05/02 00:56:27;;;;;;;7.35;4.53;;;;;;;19.19;30.54;100946.41;5046609;27;100864;-73
2023/05/02 00:58:54;;;;;;;7.30;4.07;;;;;;;19.00;31.00;100955.72;5036555;27;97112;-72
2023/05/02 01:01:32;;;;;;;6.25;4.10;;;;;;;18.90;31.36;100951.94;5043564;27;96921;-74
2023/05/02 01:04:08;;;;;;;8.48;4.10;;;;;;;18.68;31.57;100941.78;5046850;27;99245;-73
2023/05/02 01:06:48;;;;;;;9.07;4.43;;;;;;;18.76;31.92;100945.78;5044399;27;99345;-73
2023/05/02 01:09:26;;;;;;;7.43;4.18;;;;;;;18.76;32.11;100948.47;5043541;27;96783;-73
2023/05/02 01:12:02;;;;;;;9.77;4.57;;;;;;;18.91;31.82;100947.41;5039679;27;98922;-74
2023/05/02 01:14:30;;;;;;;11.70;4.63;;;;;;;19.01;31.92;100948.53;5047732;27;99009;-73
2023/05/02 01:17:04;;;;;;;6.70;3.70;;;;;;;19.00;32.09;100949.50;5039831;27;98316;-72
2023/05/02 01:19:35;;;;;;;8.18;4.05;;;;;;;18.96;32.25;100950.66;5041667;27;96934;-73
2023/05/02 01:22:06;;;;;;;10.90;4.40;;;;;;;18.91;32.69;100959.00;5047311;27;97609;-73
2023/05/02 01:24:42;;;;;;;8.10;4.18;;;;;;;18.81;33.24;100960.56;5044912;27;100690;-72
2023/05/02 01:27:18;;;;;;;12.52;4.35;;;;;;;19.01;33.08;100957.44;5036370;27;98623;-73
2023/05/02 01:29:49;;;;;;;7.93;3.78;;;;;;;18.92;33.28;100954.50;5039916;27;97691;-74
2023/05/02 01:32:16;;;;;;;7.13;4.30;;;;;;;18.93;33.40;100954.41;5043808;27;97360;-73
2023/05/02 01:34:47;;;;;;;8.40;4.47;;;;;;;18.82;33.68;100958.75;5052759;27;101163;-74
2023/05/02 01:37:17;;;;;;;6.75;4.20;;;;;;;18.59;34.12;100963.78;5046129;27;99762;-72
2023/05/02 01:39:45;;;;;;;9.57;4.00;;;;;;;18.78;33.97;100973.28;5053551;27;96844;-73
2023/05/02 01:42:12;;;;;;;7.15;4.18;;;;;;;19.02;33.63;100972.53;5052467;27;97245;-73
2023/05/02 01:44:41;;;;;;;9.30;4.22;;;;;;;18.95;33.95;100973.91;5046676;27;101070;-73
2023/05/02 01:47:10;;;;;;;10.40;4.43;;;;;;;18.94;34.17;100979.34;5042036;27;99069;-72
2023/05/02 01:49:38;;;;;;;7.03;3.80;;;;;;;18.91;34.16;100980.41;5039061;27;97491;-73
2023/05/02 01:52:10;;;;;;;9.00;4.40;;;;;;;18.71;34.66;100979.03;5041353;27;97090;-73
2023/05/02 01:54:37;;;;;;;7.75;4.25;;;;;;;18.59;35.09;100984.34;5043032;27;100874;-73
2023/05/02 01:57:06;;;;;;;7.45;3.80;;;;;;;18.54;35.19;100989.97;5045788;27;99255;-73
2023/05/02 01:59:34;;;;;;;15.23;4.97;;;;;;;18.64;35.12;100984.94;5041586;27;96902;-73
2023/05/02 02:02:02;;;;;;;7.07;4.07;;;;;;;18.68;35.28;100984.63;5050128;27;97221;-74
2023/05/02 02:04:31;;;;;;;6.10;4.22;;;;;;;18.62;35.54;100986.84;5045463;27;99158;-73
2023/05/02 02:07:01;;;;;;;9.00;4.47;;;;;;;18.79;35.03;100986.56;5043852;27;99464;-73
2023/05/02 02:09:27;;;;;;;8.43;4.15;;;;;;;18.73;35.34;100992.34;5048785;27;97394;-73
2023/05/02 02:12:02;;;;;;;6.28;4.15;;;;;;;18.62;35.62;101001.06;5048755;27;96981;-73
2023/05/02 02:14:33;;;;;;;9.73;3.78;;;;;;;18.66;35.80;101007.94;5045655;27;99110;-72
2023/05/02 02:17:02;;;;;;;14.85;4.63;;;;;;;18.51;36.10;101006.22;5052943;27;99097;-72
2023/05/02 02:19:31;;;;;;;9.88;4.80;;;;;;;18.46;36.10;101004.78;5044918;27;96754;-73
2023/05/02 02:21:59;;;;;;;9.00;3.70;;;;;;;18.10;36.84;101014.22;5050996;27;96839;-71
2023/05/02 02:24:26;;;;;;;9.70;4.70;;;;;;;18.15;36.81;101013.91;5042867;27;98204;-73
2023/05/02 02:26:52;;;;;;;7.32;4.25;;;;;;;18.14;36.91;101014.84;5050858;27;98139;-73
2023/05/02 02:29:19;;;;;;;8.52;3.85;;;;;;;18.26;36.79;101011.41;5043165;27;96892;-73
2023/05/02 02:31:45;;;;;;;9.60;5.10;;;;;;;18.22;36.62;101018.78;5038186;27;97753;-71
2023/05/02 02:34:12;;;;;;;9.43;4.03;;;;;;;18.12;36.78;101016.75;5042994;27;101069;-73
2023/05/02 02:36:47;;;;;;;9.55;4.03;;;;;;;18.16;36.89;101024.53;5045636;27;97613;-73
2023/05/02 02:39:23;;;;;;;7.97;4.07;;;;;;;18.21;37.00;101029.56;5040492;27;96920;-73
2023/05/02 02:42:01;;;;;;;7.07;4.13;;;;;;;18.13;37.22;101040.75;5043520;27;96944;-73
2023/05/02 02:44:34;;;;;;;11.13;3.42;;;;;;;17.98;37.41;101041.72;5041137;27;99188;-72
2023/05/02 02:47:07;;;;;;;6.07;3.58;;;;;;;17.82;37.87;101036.44;5042324;27;99251;-73
2023/05/02 02:49:44;;;;;;;8.73;3.80;;;;;;;17.81;37.83;101037.38;5044462;27;97051;-72
2023/05/02 02:52:21;;;;;;;7.28;3.80;;;;;;;17.40;38.82;101045.16;5042400;27;97716;-73
2023/05/02 02:54:52;;;;;;;12.10;3.97;;;;;;;17.50;38.87;101054.38;5040003;27;101978;-72
2023/05/02 02:57:24;;;;;;;6.32;3.28;;;;;;;17.46;38.79;101049.28;5042348;27;99080;-72
2023/05/02 03:00:06;;;;;;;7.13;3.58;;;;;;;17.67;38.60;101060.53;5049380;27;96920;-73
2023/05/02 03:02:36;;;;;;;5.80;3.80;;;;;;;17.68;38.33;101059.59;5042612;27;96883;-72
2023/05/02 03:05:04;;;;;;;8.40;4.07;;;;;;;17.67;38.47;101068.56;5042855;27;99346;-72
2023/05/02 03:07:32;;;;;;;10.50;3.95;;;;;;;17.83;38.11;101072.91;5042981;27;98890;-72
2023/05/02 03:09:58;;;;;;;6.15;3.30;;;;;;;17.71;38.26;101081.66;5048360;27;96866;-73
2023/05/02 03:12:25;;;;;;;5.90;3.33;;;;;;;17.65;38.44;101086.50;5048834;27;97255;-72
2023/05/02 03:14:51;;;;;;;5.60;3.10;;;;;;;17.58;38.45;101085.13;5047353;27;99191;-73
2023/05/02 03:17:18;;;;;;;11.52;3.90;;;;;;;17.54;38.60;101098.66;5046025;27;98579;-73
2023/05/02 03:19:44;;;;;;;7.70;3.20;;;;;;;17.39;39.17;101096.03;5041717;27;97112;-73
2023/05/02 03:22:10;;;;;;;8.70;3.65;;;;;;;17.10;39.61;101103.91;5049231;27;97306;-72
2023/05/02 03:24:38;;;;;;;8.00;3.22;;;;;;;17.06;39.83;101106.84;5041616;27;97517;-73
2023/05/02 03:27:05;;;;;;;9.30;3.60;;;;;;;17.01;39.82;101108.88;5047736;27;99291;-74
2023/05/02 03:29:31;;;;;;;9.23;2.97;;;;;;;17.02;40.03;101119.47;5040795;27;96808;-73
2023/05/02 03:31:58;;;;;;;9.88;3.53;;;;;;;17.10;39.82;101114.56;5044539;27;97305;-73
2023/05/02 03:34:24;;;;;;;9.00;3.80;;;;;;;17.27;39.64;101118.06;5045143;27;97580;-73
2023/05/02 03:36:50;;;;;;;10.00;3.45;;;;;;;17.17;39.77;101122.22;5043338;27;99063;-72
2023/05/02 03:39:17;;;;;;;9.70;4.05;;;;;;;17.22;39.91;101115.69;5041715;27;97603;-73
2023/05/02 03:41:45;;;;;;;6.18;3.42;;;;;;;17.28;39.59;101126.00;5046283;27;97199;-75
2023/05/02 03:44:11;;;;;;;7.88;4.00;;;;;;;17.38;39.70;101129.03;5041492;27;102170;-76
2023/05/02 03:46:37;;;;;;;8.45;4.30;;;;;;;17.53;39.49;101130.78;5044619;27;99418;-76
2023/05/02 03:49:04;;;;;;;8.73;4.35;;;;;;;17.69;39.36;101131.66;5043664;27;97759;-75
2023/05/02 03:51:30;;;;;;;9.38;6.10;;;;;;;17.56;39.77;101130.63;5047842;27;97349;-76
2023/05/02 03:53:57;;;;;;;8.10;4.65;;;;;;;17.61;39.76;101127.72;5041484;27;99404;-77
2023/05/02 03:56:23;;;;;;;8.65;5.15;;;;;;;17.20;40.80;101135.44;5041136;27;98853;-76
2023/05/02 03:58:51;;;;;;;12.23;4.80;;;;;;;17.30;40.80;101141.94;5044411;27;97602;-75
2023/05/02 04:01:18;;;;;;;9.57;4.07;;;;;;;17.41;40.87;101152.88;5046164;27;96806;-76
2023/05/02 04:03:44;;;;;;;9.52;4.22;;;;;;;17.31;41.13;101147.22;5045032;27;97871;-76
2023/05/02 04:06:11;;;;;;;8.00;3.58;;;;;;;17.24;41.56;101158.31;5050064;27;99186;-76
2023/05/02 04:08:38;;;;;;;8.45;3.50;;;;;;;17.15;41.62;101157.03;5041361;27;97041;-76
2023/05/02 04:11:04;;;;;;;9.40;3.28;;;;;;;17.30;41.62;101157.97;5041800;27;97128;-76
2023/05/02 04:13:31;;;;;;;7.55;3.10;;;;;;;17.17;42.00;101164.97;5043761;27;99220;-76
2023/05/02 04:15:59;;;;;;;9.05;3.70;;;;;;;17.12;41.91;101167.91;5044478;27;98928;-75
2023/05/02 04:18:25;;;;;;;3.88;2.85;;;;;;;17.21;41.82;101171.84;5047754;27;97292;-75
2023/05/02 04:20:52;;;;;;;7.07;3.15;;;;;;;17.20;41.67;101180.81;5037126;27;96998;-76
2023/05/02 04:23:18;;;;;;;6.68;3.15;;;;;;;16.97;42.14;101180.28;5042998;27;98995;-76
2023/05/02 04:25:51;;;;;;;6.88;3.42;;;;;;;17.20;42.08;101184.31;5050112;27;97578;-77
2023/05/02 04:28:17;;;;;;;7.18;3.33;;;;;;;17.21;41.85;101187.84;5043304;27;97122;-76
2023/05/02 04:30:43;;;;;;;11.23;3.67;;;;;;;17.13;42.07;101186.47;5040349;27;97145;-76
2023/05/02 04:33:11;;;;;;;8.38;3.40;;;;;;;17.48;41.21;101188.97;5043436;27;98976;-78
2023/05/02 04:35:39;;;;;;;6.75;3.38;;;;;;;17.65;40.76;101190.72;5044626;27;98945;-77
2023/05/02 04:38:06;;;;;;;7.28;3.08;;;;;;;17.63;40.67;101193.50;5040637;27;97020;-75
2023/05/02 04:40:32;;;;;;;6.55;3.30;;;;;;;17.44;40.95;101190.13;5049651;27;96807;-76
2023/05/02 04:42:59;;;;;;;8.85;3.03;;;;;;;17.52;40.44;101188.72;5039046;27;99347;-75
2023/05/02 04:45:26;;;;;;;8.00;3.13;;;;;;;17.56;40.50;101189.41;5049349;27;98782;-77
2023/05/02 04:47:52;;;;;;;4.57;2.78;;;;;;;17.86;39.87;101193.00;5046476;27;97084;-75
2023/05/02 04:50:20;;;;;;;6.45;3.03;;;;;;;17.93;39.72;101193.50;5050046;27;96796;-76
2023/05/02 04:52:46;;;;;;;6.50;2.80;;;;;;;17.97;39.62;101208.44;5040423;27;98865;-77
2023/05/02 04:55:12;;;;;;;9.20;3.28;;;;;;;17.92;39.70;101208.66;5041205;27;98899;-76
2023/05/02 04:57:39;;;;;;;8.25;3.00;;;;;;;17.87;39.60;101216.13;5051104;27;96757;-76
2023/05/02 05:00:07;;;;;;;8.70;3.22;;;;;;;18.00;39.39;101210.03;5038503;27;96996;-77
2023/05/02 05:02:33;;;;;;;10.70;5.10;;;;;;;18.30;38.82;101219.78;5041095;27;98926;-76
2023/05/02 05:05:01;;;;;;;8.75;3.40;;;;;;;17.83;39.76;101214.56;5046157;27;99589;-74
2023/05/02 05:07:28;;;;;;;6.80;2.92;;;;;;;17.98;39.33;101219.97;5046492;27;96992;-76
2023/05/02 05:09:55;;;;;;;11.70;3.08;;;;;;;17.81;39.64;101237.00;5035198;27;96999;-76
2023/05/02 05:12:21;;;;;;;10.27;3.10;;;;;;;17.68;39.92;101239.50;5041203;27;99549;-76
2023/05/02 05:14:48;;;;;;;6.35;3.00;;;;;;;17.42;40.37;101256.97;5038030;27;98863;-76
2023/05/02 05:17:15;;;;;;;7.10;4.10;;;;;;;17.42;40.65;101246.28;5041302;27;99714;-75
2023/05/02 05:19:41;;;;;;;13.63;3.17;;;;;;;17.58;40.23;101246.31;5040801;27;99226;-77
2023/05/02 05:22:08;;;;;;;12.18;3.95;;;;;;;17.63;40.13;101248.75;5038805;27;99192;-76
2023/05/02 05:24:38;;;;;;;5.78;3.13;;;;;;;17.45;40.88;101254.16;5045269;27;99129;-78
2023/05/02 05:27:04;;;;;;;6.38;3.00;;;;;;;17.59;40.29;101269.38;5041359;27;99427;-77
2023/05/02 05:29:31;;;;;;;4.93;2.92;;;;;;;17.51;40.68;101260.97;5045095;27;97531;-76
2023/05/02 05:31:58;;;;;;;6.70;3.20;;;;;;;17.54;40.71;101266.09;5040219;27;97479;-76
2023/05/02 05:34:25;;;;;;;5.20;2.70;;;;;;;17.75;40.39;101275.63;5038282;27;98996;-76
2023/05/02 05:36:52;;;;;;;11.23;4.13;;;;;;;18.06;39.88;101284.56;5043312;27;98796;-77
2023/05/02 05:39:18;;;;;;;11.30;3.50;;;;;;;17.97;39.76;101285.97;5040924;27;96893;-76
2023/05/02 05:41:46;;;;;;;6.85;3.72;;;;;;;18.08;39.77;101294.22;5042854;27;98947;-77
2023/05/02 05:44:12;;;;;;;7.75;3.50;;;;;;;18.53;39.06;101290.66;5046171;27;98875;-77
2023/05/02 05:46:39;;;;;;;8.60;3.53;;;;;;;18.30;39.56;101293.84;5037650;27;96999;-77
2023/05/02 05:49:05;;;;;;;8.48;4.03;;;;;;;18.35;39.35;101297.09;5042250;27;96893;-77
2023/05/02 05:51:32;;;;;;;12.80;3.83;;;;;;;18.43;39.42;101300.19;5042268;27;97845;-76
2023/05/02 05:53:58;;;;;;;7.97;3.55;;;;;;;18.34;39.64;101303.41;5045913;27;99042;-75
2023/05/02 05:56:24;;;;;;;8.25;3.35;;;;;;;18.21;39.98;101311.28;5043147;27;96744;-76
2023/05/02 05:58:53;;;;;;;5.95;3.80;;;;;;;18.60;39.25;101318.78;5042858;27;96987;-76
2023/05/02 06:01:19;;;;;;;6.80;3.25;;;;;;;18.33;40.13;101323.06;5047196;27;99362;-76
2023/05/02 06:03:46;;;;;;;9.38;4.13;;;;;;;18.07;40.70;101324.59;5042540;27;100436;-75
2023/05/02 06:06:12;;;;;;;9.25;4.13;;;;;;;18.29;40.67;101335.78;5047661;27;96869;-76
2023/05/02 06:08:39;;;;;;;8.32;4.88;;;;;;;18.37;40.39;101331.78;5044167;27;98154;-77
2023/05/02 06:11:09;;;;;;;7.95;4.95;;;;;;;18.45;40.76;101343.75;5047777;27;99457;-77
2023/05/02 06:13:35;;;;;;;12.35;4.82;;;;;;;18.69;40.20;101341.50;5043752;27;97971;-77
2023/05/02 06:16:04;;;;;;;7.93;4.47;;;;;;;18.84;40.04;101353.09;5044757;27;96775;-75
2023/05/02 06:18:30;;;;;;;7.30;5.10;;;;;;;18.78;40.22;101359.66;5049700;27;97244;-74
2023/05/02 06:20:57;;;;;;;13.27;5.95;;;;;;;18.80;40.41;101360.44;5037649;27;97982;-74
2023/05/02 06:23:23;;;;;;;10.27;5.85;;;;;;;18.38;41.70;101365.63;5041724;27;98773;-77
2023/05/02 06:25:50;;;;;;;10.80;6.07;;;;;;;18.91;40.93;101365.13;5045344;27;97205;-76
2023/05/02 06:28:16;;;;;;;10.30;6.10;;;;;;;18.87;40.88;101368.97;5046615;27;96914;-74
2023/05/02 06:30:42;;;;;;;11.73;6.43;;;;;;;18.88;41.07;101366.19;5033615;27;98876;-75
2023/05/02 06:33:11;;;;;;;10.45;6.97;;;;;;;19.12;41.04;101374.56;5039292;27;98670;-76
2023/05/02 06:35:37;;;;;;;16.50;8.05;;;;;;;19.59;40.46;101377.00;5042479;27;97144;-76
2023/05/02 06:38:23;;;;;;;17.50;8.48;;;;;;;19.69;40.23;101385.34;5037114;27;98523;-76
2023/05/02 06:40:49;;;;;;;15.27;7.55;;;;;;;20.00;39.34;101395.81;5043750;27;101274;-76
2023/05/02 06:43:16;;;;;;;13.80;8.60;;;;;;;19.86;39.68;101390.47;5046306;27;97725;-75
2023/05/02 06:45:43;;;;;;;14.23;8.68;;;;;;;19.83;39.81;101401.38;5048196;27;96841;-74
2023/05/02 06:48:11;;;;;;;13.45;8.43;;;;;;;19.80;39.81;101407.81;5039393;27;97072;-76
2023/05/02 06:50:37;;;;;;;13.32;8.23;;;;;;;19.70;40.24;101408.47;5049194;27;102156;-75
2023/05/02 06:53:04;;;;;;;12.85;7.50;;;;;;;19.46;40.43;101406.41;5047709;27;98850;-76
2023/05/02 06:55:33;;;;;;;14.25;8.07;;;;;;;19.44;40.65;101412.75;5048583;27;96964;-76
2023/05/02 06:58:00;;;;;;;13.23;7.30;;;;;;;19.48;40.64;101414.34;5050500;27;97377;-75
2023/05/02 07:00:26;;;;;;;15.07;7.00;;;;;;;19.80;40.10;101423.91;5050733;27;98897;-76
2023/05/02 07:02:53;;;;;;;11.90;6.80;;;;;;;19.39;41.21;101420.22;5047053;27;100774;-75
2023/05/02 07:05:20;;;;;;;16.20;9.13;;;;;;;19.90;40.19;101434.91;5042615;27;96919;-76
2023/05/02 07:07:47;;;;;;;13.45;6.93;;;;;;;19.90;40.30;101433.09;5041897;27;96845;-77
2023/05/02 07:10:14;;;;;;;18.48;8.10;;;;;;;19.70;40.73;101446.03;5050184;27;100090;-77
2023/05/02 07:12:40;;;;;;;10.60;6.07;;;;;;;19.48;41.21;101442.00;5041960;27;96826;-77
2023/05/02 07:15:07;;;;;;;9.02;6.50;;;;;;;19.58;41.28;101453.00;5056503;27;97173;-77
2023/05/02 07:17:34;;;;;;;11.07;6.32;;;;;;;19.54;41.30;101453.31;5047089;27;97082;-76
2023/05/02 07:20:00;;;;;;;10.38;6.00;;;;;;;19.58;41.36;101452.16;5040758;27;98981;-77
2023/05/02 07:22:28;;;;;;;9.85;6.20;;;;;;;19.57;41.40;101458.47;5047853;27;99616;-75
2023/05/02 07:24:58;;;;;;;11.02;5.93;;;;;;;19.44;41.97;101451.16;5052889;27;96724;-78
2023/05/02 07:27:25;;;;;;;10.55;6.20;;;;;;;19.62;41.48;101454.56;5049068;27;96887;-76
2023/05/02 07:29:51;;;;;;;10.27;5.80;;;;;;;19.60;41.71;101448.44;5045913;27;99454;-76
2023/05/02 07:32:18;;;;;;;9.32;5.97;;;;;;;20.27;40.51;101452.22;5043426;27;101667;-76
2023/05/02 07:34:44;;;;;;;10.68;5.80;;;;;;;20.50;39.72;101458.78;5046161;27;96821;-76
2023/05/02 07:37:11;;;;;;;7.53;5.53;;;;;;;20.37;40.17;101471.28;5053261;27;97148;-76
2023/05/02 07:39:39;;;;;;;7.75;5.70;;;;;;;20.37;40.44;101461.41;5049526;27;99157;-76
2023/05/02 07:42:05;;;;;;;13.57;6.28;;;;;;;20.37;40.17;101457.84;5052731;27;97809;-77
2023/05/02 07:44:33;;;;;;;9.55;6.13;;;;;;;19.82;41.52;101467.56;5053189;27;97063;-76
2023/05/02 07:47:00;;;;;;;10.88;6.22;;;;;;;19.70;41.98;101475.50;5046190;27;97001;-76
2023/05/02 07:49:26;;;;;;;9.35;6.13;;;;;;;19.61;42.22;101478.78;5046778;27;102186;-76
2023/05/02 07:51:52;;;;;;;7.85;5.00;;;;;;;19.52;42.39;101477.53;5041804;27;98068;-76
2023/05/02 07:54:21;;;;;;;8.02;4.97;;;;;;;19.67;42.11;101478.41;5039314;27;96788;-76
2023/05/02 07:56:48;;;;;;;8.05;5.40;;;;;;;19.74;41.74;101493.16;5048632;27;96854;-77
2023/05/02 07:59:15;;;;;;;8.73;5.07;;;;;;;19.52;42.34;101485.56;5044490;27;99091;-76
2023/05/02 08:01:41;;;;;;;6.47;4.75;;;;;;;19.15;43.32;101496.75;5044930;27;98919;-77
2023/05/02 08:04:09;;;;;;;10.82;5.28;;;;;;;19.56;42.42;101497.81;5049401;27;96882;-76
2023/05/02 08:06:35;;;;;;;9.70;5.93;;;;;;;19.68;42.24;101497.09;5043500;27;98035;-76
2023/05/02 08:09:02;;;;;;;11.32;6.60;;;;;;;19.81;42.23;101500.72;5041087;27;98977;-76
2023/05/02 08:11:28;;;;;;;8.48;5.40;;;;;;;19.74;42.43;101502.06;5047150;27;97635;-76
2023/05/02 08:13:56;;;;;;;6.88;5.22;;;;;;;20.04;41.79;101503.78;5042431;27;97361;-77
2023/05/02 08:16:22;;;;;;;6.82;5.20;;;;;;;19.54;42.83;101506.91;5045142;27;96797;-75
2023/05/02 08:18:49;;;;;;;8.98;4.90;;;;;;;19.82;41.98;101506.97;5038023;27;98888;-76
2023/05/02 08:21:15;;;;;;;8.77;4.30;;;;;;;20.11;41.58;101518.53;5040408;27;98945;-75
2023/05/02 08:23:42;;;;;;;7.50;4.72;;;;;;;20.24;41.17;101517.66;5040456;27;97048;-76
2023/05/02 08:26:08;;;;;;;10.35;4.20;;;;;;;19.97;41.20;101518.53;5041407;27;97411;-76
2023/05/02 08:28:35;;;;;;;6.25;4.05;;;;;;;20.10;41.10;101520.34;5040206;27;99317;-75
2023/05/02 08:31:02;;;;;;;6.13;3.92;;;;;;;20.14;41.00;101524.59;5041422;27;99063;-76
2023/05/02 08:33:29;;;;;;;11.52;6.32;;;;;;;20.34;40.10;101536.78;5045903;27;96885;-77
2023/05/02 08:35:55;;;;;;;3.92;3.30;;;;;;;19.86;41.50;101532.63;5042666;27;96936;-76
2023/05/02 08:38:21;;;;;;;7.32;3.97;;;;;;;20.09;40.75;101534.72;5034715;27;99165;-77
2023/05/02 08:40:48;;;;;;;5.20;3.50;;;;;;;19.53;42.18;101537.34;5037208;27;99086;-77
2023/05/02 08:43:16;;;;;;;8.93;3.55;;;;;;;19.50;42.54;101541.94;5045174;27;97319;-76
2023/05/02 08:45:44;;;;;;;6.20;3.60;;;;;;;19.54;42.49;101541.75;5052834;27;97002;-76
2023/05/02 08:48:15;;;;;;;4.68;3.10;;;;;;;19.75;42.11;101546.69;5045439;27;97591;-77
2023/05/02 08:50:45;;;;;;;4.15;3.00;;;;;;;19.65;42.48;101547.34;5039561;27;98898;-76
2023/05/02 08:53:13;;;;;;;7.10;3.35;;;;;;;19.96;41.55;101557.03;5047919;27;96844;-77
2023/05/02 08:55:41;;;;;;;7.28;3.00;;;;;;;19.48;42.71;101556.41;5036269;27;97420;-76
2023/05/02 08:58:08;;;;;;;5.45;3.40;;;;;;;19.41;42.94;101569.28;5039796;27;97834;-76
2023/05/02 09:00:38;;;;;;;6.47;3.42;;;;;;;19.44;42.83;101560.16;5045554;27;101507;-76
2023/05/02 09:03:10;;;;;;;6.82;3.47;;;;;;;19.82;42.03;101568.66;5039787;27;97461;-77
2023/05/02 09:05:40;;;;;;;6.30;3.28;;;;;;;19.82;42.29;101569.47;5038805;27;96807;-77
2023/05/02 09:08:07;;;;;;;6.65;3.50;;;;;;;20.10;41.85;101576.69;5041890;27;98075;-77
2023/05/02 09:10:36;;;;;;;3.85;3.17;;;;;;;19.81;42.65;101580.31;5048645;27;100252;-77
2023/05/02 09:13:30;;;;;;;6.03;3.85;;;;;;;20.41;41.35;101588.25;5050121;27;96888;-76
2023/05/02 09:15:58;;;;;;;3.58;2.97;;;;;;;20.24;41.63;101589.25;5043085;27;96979;-76
2023/05/02 09:18:25;;;;;;;5.43;3.53;;;;;;;20.26;41.88;101593.59;5044028;27;99506;-76
2023/05/02 09:20:53;;;;;;;5.38;3.25;;;;;;;20.46;41.09;101592.34;5044458;27;98577;-77
2023/05/02 09:23:20;;;;;;;12.80;4.40;;;;;;;20.13;42.03;101595.31;5040321;27;97277;-76
2023/05/02 09:25:46;;;;;;;6.20;3.20;;;;;;;20.06;41.96;101599.31;5039999;27;96828;-76
2023/05/02 09:28:12;;;;;;;5.88;3.20;;;;;;;19.80;42.67;101600.91;5046080;27;99062;-77
2023/05/02 09:30:39;;;;;;;6.88;3.55;;;;;;;19.57;43.27;101605.91;5038719;27;98955;-77
2023/05/02 09:33:05;;;;;;;5.82;3.30;;;;;;;19.35;44.00;101614.34;5046279;27;97211;-76
2023/05/02 09:35:32;;;;;;;4.22;2.67;;;;;;;19.53;43.72;101617.78;5050065;27;96982;-76
2023/05/02 09:38:00;;;;;;;5.78;3.30;;;;;;;19.72;43.35;101631.81;5048684;27;98983;-77
2023/05/02 09:40:27;;;;;;;4.78;2.85;;;;;;;19.85;43.16;101624.75;5045557;27;98621;-76
2023/05/02 09:42:53;;;;;;;4.88;3.20;;;;;;;19.87;43.06;101622.84;5057065;27;96713;-77
2023/05/02 09:45:21;;;;;;;2.95;2.60;;;;;;;19.94;42.74;101626.91;5059838;27;97340;-77
2023/05/02 09:47:48;;;;;;;3.85;2.70;;;;;;;20.01;42.80;101622.88;5054926;27;97723;-75
2023/05/02 09:50:33;;;;;;;4.57;2.67;;;;;;;20.31;41.95;101622.81;5046807;27;100787;-76
2023/05/02 09:53:06;;;;;;;4.68;2.97;;;;;;;20.38;41.35;101626.88;5045390;27;97255;-76
2023/05/02 09:55:32;;;;;;;5.35;3.22;;;;;;;20.51;41.47;101624.28;5047103;27;96880;-76
2023/05/02 09:57:59;;;;;;;5.63;2.65;;;;;;;21.01;40.40;101635.31;5037340;27;98910;-77
2023/05/02 10:00:39;;;;;;;2.90;2.55;;;;;;;21.09;40.49;101634.81;5046096;27;99298;-77
2023/05/02 10:03:07;;;;;;;9.82;2.78;;;;;;;20.83;40.72;101639.19;5038411;27;96845;-75
2023/05/02 10:05:37;;;;;;;3.10;2.45;;;;;;;20.64;41.01;101639.50;5044165;27;97024;-76
2023/05/02 10:08:06;;;;;;;3.30;2.40;;;;;;;21.01;40.26;101647.88;5045027;27;98089;-76
2023/05/02 10:10:35;;;;;;;5.03;2.88;;;;;;;20.66;40.99;101642.97;5051052;27;99374;-77
2023/05/02 10:13:03;;;;;;;4.88;2.60;;;;;;;20.16;42.32;101647.91;5052190;27;97182;-76
2023/05/02 10:15:31;;;;;;;6.10;2.95;;;;;;;20.13;42.45;101664.19;5044736;27;97443;-76
2023/05/02 10:17:59;;;;;;;3.72;2.83;;;;;;;19.99;43.30;101662.34;5041774;27;99320;-77
2023/05/02 10:20:32;;;;;;;7.32;3.15;;;;;;;20.23;43.09;101663.53;5041061;27;98007;-76
2023/05/02 10:23:00;;;;;;;6.20;3.22;;;;;;;20.18;42.78;101671.00;5043175;27;96850;-76
2023/05/02 10:25:28;;;;;;;5.47;2.80;;;;;;;20.06;43.18;101682.50;5050403;27;97809;-75
2023/05/02 10:27:56;;;;;;;5.82;3.30;;;;;;;20.20;42.58;101687.88;5049876;27;99930;-77
2023/05/02 10:30:24;;;;;;;3.72;2.85;;;;;;;20.12;43.07;101692.84;5049928;27;99233;-76
2023/05/02 10:32:54;;;;;;;9.93;2.90;;;;;;;20.19;42.58;101691.53;5052546;27;97010;-77
2023/05/02 10:35:21;;;;;;;3.20;2.45;;;;;;;19.93;42.88;101705.63;5046451;27;97012;-76
2023/05/02 10:37:48;;;;;;;3.47;2.10;;;;;;;19.92;43.07;101711.94;5044306;27;100172;-76
2023/05/02 10:40:15;;;;;;;5.30;2.42;;;;;;;19.26;44.63;101714.84;5046016;27;101667;-76
2023/05/02 10:42:46;;;;;;;4.72;2.17;;;;;;;18.75;45.66;101731.13;5051323;27;96987;-76
2023/05/02 10:45:29;;;;;;;5.00;2.20;;;;;;;18.88;45.70;101726.84;5043680;27;97317;-76
2023/05/02 10:48:14;;;;;;;8.18;2.90;;;;;;;18.90;45.67;101733.00;5040266;27;98276;-76
2023/05/02 10:50:43;;;;;;;3.65;2.10;;;;;;;18.95;44.98;101746.97;5039391;27;98744;-76
2023/05/02 10:53:25;;;;;;;2.67;1.95;;;;;;;19.10;45.03;101746.13;5042144;27;96977;-76
2023/05/02 10:56:14;;;;;;;5.68;2.40;;;;;;;18.73;45.63;101760.66;5043245;27;96834;-77
2023/05/02 10:58:43;;;;;;;7.97;2.95;;;;;;;18.76;45.56;101749.78;5045353;27;99034;-75
2023/05/02 11:01:33;;;;;;;12.25;4.10;;;;;;;18.88;44.70;101758.97;5041945;27;98819;-76
2023/05/02 11:04:00;;;;;;;9.20;3.13;;;;;;;18.51;45.53;101762.72;5050678;27;96861;-77
2023/05/02 11:06:28;;;;;;;10.18;3.97;;;;;;;18.48;45.35;101773.56;5042072;27;97067;-76
2023/05/02 11:09:34;;;;;;;9.55;3.92;;;;;;;18.36;45.43;101779.56;5045436;27;99232;-76
2023/05/02 11:12:04;;;;;;;12.52;4.53;;;;;;;18.19;45.45;101783.09;5044500;27;98043;-77
2023/05/02 11:14:50;;;;;;;23.25;5.20;;;;;;;18.01;44.88;101786.69;5043815;27;96848;-75
2023/05/02 11:17:19;;;;;;;14.43;4.55;;;;;;;18.59;43.38;101793.50;5042683;27;96874;-76
2023/05/02 11:20:29;;;;;;;13.95;3.88;;;;;;;18.16;42.56;101784.13;5040949;27;99350;-76
2023/05/02 11:22:58;;;;;;;15.05;4.15;;;;;;;18.99;41.23;101792.25;5043911;27;98964;-76
2023/05/02 11:25:36;;;;;;;15.25;4.18;;;;;;;19.49;39.58;101792.16;5049580;27;97541;-76
2023/05/02 11:28:04;;;;;;;9.85;3.63;;;;;;;19.36;39.47;101791.09;5043802;27;96793;-75